Portada
METAR-TAF:

METAR-TAF

Aeropuertos :

Aeropuerto Internacional Madre Teresa

Tirana, Albania

latitud: 41-20N, longitud: 019-47E, altitud: 89 m

Observación

El informe se hizo hace 29 minutos, a las 03:50 UTC
Viento 4 kt del sur
Temperatura 4°C
Humedad 93%
Presión 1016 hPa
Visibilidad 10 km o más
sin nubes por debajo de 1500 m y sin presencia de cumulonimbus.

METAR: LATI 250350Z 18004KT CAVOK 04/03 Q1016 NOSIG

Hora: 05:19 (04:19 UTC)

Pronóstico

El informe se hizo hace 5 horas y 19 minutos, a las 23:00 UTC
Pronóstico válido del 25 a las 00 UTC al 25 a las 24 UTC
Viento 4 kt con dirección variable
Visibilidad 10 km o más
sin nubes por debajo de 1500 m y sin presencia de cumulonimbus.
Temporalmente
del 25 a las 09 UTC al 25 a las 18 UTC
Viento 15 kt del sur

TAF: LATI 242300Z 2500/2524 VRB04KT CAVOK TX20/2512Z TN03/2505Z TEMPO 2509/2518 18015KT

Observaciones y pronósticos meteorológicos de más de 4000 aeropuertos (mensajes METAR y TAF).

Los puntos amarillos y rojos representan las estaciones disponibles.

Ponga el ratón en el punto deseado para ver el nombre de la estación.

Haga clic para ver las observaciones y los pronósticos meteorológicos.

Para cambiar el mapa : haga clic en los botones verdes con una cruz de color negro para hacer un zoom, en el botón verde con un guión para alejar o en las flechas verdes para mapas adyacentes.


METAR-TAF: